Time;durP1;ratioP1;P1;durP2;ratioP2;P2;SDS_P1;SDS_P2;PMS_P1;PMS_P2;Temp;Humidity;BMP_temperature;BMP_pressure;BME280_temperature;BME280_humidity;BME280_pressure;Samples;Min_cycle;Max_cycle;Signal;HPM_P1;HPM_P2
2024/01/06 00:01:23;;;;;;;0.70;0.70;;;6.40;1.00;;;;;;5039811;28;20175;-85
2024/01/06 00:03:48;;;;;;;0.70;0.70;;;6.40;1.00;;;;;;5039844;28;20182;-85
2024/01/06 00:06:14;;;;;;;0.80;0.80;;;6.40;1.00;;;;;;5039639;28;20260;-85
2024/01/06 00:08:40;;;;;;;0.70;0.70;;;6.50;1.00;;;;;;5039836;28;20243;-85
2024/01/06 00:11:07;;;;;;;0.80;0.80;;;6.50;1.00;;;;;;5040202;28;20227;-85
2024/01/06 00:13:32;;;;;;;0.70;0.70;;;6.50;1.00;;;;;;5038079;28;20184;-84
2024/01/06 00:15:58;;;;;;;0.80;0.80;;;6.50;1.00;;;;;;5039026;28;20203;-85
2024/01/06 00:18:24;;;;;;;0.80;0.80;;;6.50;1.00;;;;;;5038638;28;20246;-84
2024/01/06 00:20:49;;;;;;;0.73;0.73;;;6.50;1.00;;;;;;5038866;28;20180;-84
2024/01/06 00:23:15;;;;;;;0.70;0.70;;;6.50;1.00;;;;;;5038860;28;20210;-84
2024/01/06 00:25:40;;;;;;;0.70;0.70;;;6.50;1.00;;;;;;5037719;28;20187;-85
2024/01/06 00:28:06;;;;;;;0.70;0.70;;;6.50;1.00;;;;;;5039320;28;20275;-84
2024/01/06 00:30:31;;;;;;;0.70;0.70;;;6.50;1.00;;;;;;5036698;28;20184;-85
2024/01/06 00:32:57;;;;;;;0.70;0.70;;;6.60;1.00;;;;;;5038408;28;20271;-84
2024/01/06 00:35:22;;;;;;;0.80;0.80;;;6.50;1.00;;;;;;5036713;28;20199;-85
2024/01/06 00:37:48;;;;;;;0.73;0.73;;;6.60;1.00;;;;;;5037974;28;20215;-84
2024/01/06 00:40:14;;;;;;;0.80;0.80;;;6.60;1.00;;;;;;5038343;28;20180;-85
2024/01/06 00:42:39;;;;;;;0.90;0.90;;;6.50;1.00;;;;;;5038170;28;20182;-84
2024/01/06 00:45:05;;;;;;;0.63;0.63;;;6.50;1.00;;;;;;5037924;28;20194;-84
2024/01/06 00:47:31;;;;;;;0.90;0.90;;;6.50;1.00;;;;;;5037711;28;20295;-84
2024/01/06 00:49:56;;;;;;;0.80;0.80;;;6.50;1.00;;;;;;5036776;28;20183;-85
2024/01/06 00:52:22;;;;;;;0.80;0.80;;;6.50;1.00;;;;;;5050726;28;20187;-84
2024/01/06 00:54:48;;;;;;;0.77;0.77;;;6.50;1.00;;;;;;5034102;28;20171;-84
2024/01/06 00:57:13;;;;;;;0.80;0.80;;;6.50;1.00;;;;;;5032009;28;20685;-84
2024/01/06 00:59:39;;;;;;;0.60;0.60;;;6.40;1.00;;;;;;5034078;28;20718;-84
2024/01/06 01:02:04;;;;;;;0.80;0.80;;;6.40;1.00;;;;;;5033823;28;20613;-84
2024/01/06 01:04:30;;;;;;;0.77;0.77;;;6.40;1.00;;;;;;5033875;28;20531;-84
2024/01/06 01:06:55;;;;;;;0.60;0.60;;;6.40;1.00;;;;;;5033780;28;20196;-84
2024/01/06 01:09:21;;;;;;;0.70;0.70;;;6.40;1.00;;;;;;5045169;28;20236;-84
2024/01/06 01:11:46;;;;;;;0.73;0.73;;;6.40;1.00;;;;;;5055717;28;20192;-85
2024/01/06 01:14:12;;;;;;;0.70;0.70;;;6.30;1.00;;;;;;5055850;28;20159;-84
2024/01/06 01:16:37;;;;;;;0.80;0.80;;;6.30;1.00;;;;;;5054987;28;20202;-85
2024/01/06 01:19:03;;;;;;;0.80;0.80;;;6.30;1.00;;;;;;5050828;28;20215;-85
2024/01/06 01:21:29;;;;;;;0.80;0.80;;;6.30;1.00;;;;;;5039462;28;20183;-85
2024/01/06 01:23:54;;;;;;;0.80;0.80;;;6.30;1.00;;;;;;5045629;28;20172;-85
2024/01/06 01:26:20;;;;;;;0.90;0.90;;;6.30;1.00;;;;;;5054981;28;20259;-86
2024/01/06 01:28:45;;;;;;;0.70;0.70;;;6.30;1.00;;;;;;5056940;28;20184;-85
2024/01/06 01:31:13;;;;;;;0.73;0.73;;;6.30;1.00;;;;;;5046274;28;20284;-85
2024/01/06 01:33:38;;;;;;;0.80;0.80;;;6.30;1.00;;;;;;5040020;28;20176;-84
2024/01/06 01:36:04;;;;;;;0.80;0.80;;;6.30;1.00;;;;;;5038058;28;20309;-85
2024/01/06 01:38:30;;;;;;;0.70;0.70;;;6.30;1.00;;;;;;5037986;28;20211;-85
2024/01/06 01:40:55;;;;;;;0.60;0.60;;;6.30;1.00;;;;;;5038767;28;20253;-85
2024/01/06 01:43:23;;;;;;;0.70;0.70;;;6.30;1.00;;;;;;5038567;28;20251;-85
2024/01/06 01:45:52;;;;;;;0.80;0.80;;;6.30;1.00;;;;;;5036987;28;20641;-85
2024/01/06 01:48:19;;;;;;;0.70;0.70;;;6.30;1.00;;;;;;5037896;28;20172;-85
2024/01/06 01:50:46;;;;;;;0.70;0.70;;;6.20;1.00;;;;;;5038222;28;20782;-84
2024/01/06 01:53:12;;;;;;;0.70;0.70;;;6.20;1.00;;;;;;5037816;28;20199;-85
2024/01/06 01:55:38;;;;;;;0.70;0.70;;;6.20;1.00;;;;;;5037031;28;20712;-85
2024/01/06 01:58:05;;;;;;;0.67;0.67;;;6.10;1.00;;;;;;5037326;28;20260;-85
2024/01/06 02:00:30;;;;;;;0.80;0.80;;;6.10;1.00;;;;;;5037642;28;20180;-84
2024/01/06 02:02:58;;;;;;;0.70;0.70;;;6.10;1.00;;;;;;5037908;28;20200;-84
2024/01/06 02:05:24;;;;;;;0.60;0.60;;;6.10;1.00;;;;;;5037006;28;20195;-84
2024/01/06 02:07:50;;;;;;;0.70;0.70;;;6.00;1.00;;;;;;5037009;28;20203;-84
2024/01/06 02:10:17;;;;;;;0.70;0.70;;;6.00;1.00;;;;;;5036732;28;20199;-85
2024/01/06 02:12:42;;;;;;;0.80;0.80;;;6.00;1.00;;;;;;5038076;28;20187;-84
2024/01/06 02:15:08;;;;;;;0.70;0.70;;;6.00;1.00;;;;;;5037028;28;20168;-85
2024/01/06 02:17:34;;;;;;;0.70;0.70;;;6.10;1.00;;;;;;5036739;28;20203;-84
2024/01/06 02:19:59;;;;;;;0.70;0.70;;;6.10;1.00;;;;;;5037222;28;20187;-84
2024/01/06 02:22:25;;;;;;;0.70;0.70;;;6.10;1.00;;;;;;5039361;28;20191;-85
2024/01/06 02:24:50;;;;;;;0.80;0.80;;;6.10;1.00;;;;;;5039567;28;20176;-85
2024/01/06 02:27:16;;;;;;;0.80;0.80;;;6.10;1.00;;;;;;5037960;28;20573;-85
2024/01/06 02:29:41;;;;;;;0.70;0.70;;;6.00;1.00;;;;;;5038953;28;20195;-85
2024/01/06 02:32:07;;;;;;;0.80;0.80;;;6.00;1.00;;;;;;5038283;28;20207;-85
2024/01/06 02:34:34;;;;;;;0.80;0.80;;;6.00;1.00;;;;;;5037282;28;20195;-85
2024/01/06 02:37:00;;;;;;;0.80;0.80;;;6.00;1.00;;;;;;5036767;28;20226;-84
2024/01/06 02:39:25;;;;;;;0.70;0.70;;;6.00;1.00;;;;;;5045319;28;20187;-84
2024/01/06 02:41:51;;;;;;;0.83;0.83;;;6.00;1.00;;;;;;5048147;28;20654;-83
2024/01/06 02:44:16;;;;;;;0.70;0.70;;;6.00;1.00;;;;;;5034911;28;20186;-84
2024/01/06 02:46:42;;;;;;;0.77;0.77;;;6.00;1.00;;;;;;5034964;28;20200;-84
2024/01/06 02:49:08;;;;;;;0.70;0.70;;;6.00;1.00;;;;;;5035611;28;20191;-84
2024/01/06 02:51:34;;;;;;;0.70;0.70;;;6.00;1.00;;;;;;5034880;28;20180;-85
2024/01/06 02:53:59;;;;;;;0.80;0.80;;;6.00;1.00;;;;;;5037205;28;20254;-84
2024/01/06 02:56:25;;;;;;;0.70;0.70;;;6.00;1.00;;;;;;5038027;28;20571;-84
2024/01/06 02:58:50;;;;;;;0.70;0.70;;;6.00;1.00;;;;;;5038333;28;20186;-84
2024/01/06 03:01:17;;;;;;;0.70;0.70;;;6.00;1.00;;;;;;5037969;28;20180;-84
2024/01/06 03:03:42;;;;;;;0.80;0.80;;;6.00;1.00;;;;;;5037787;28;20182;-84
2024/01/06 03:06:08;;;;;;;0.70;0.70;;;6.00;1.00;;;;;;5037306;28;20188;-84
2024/01/06 03:08:34;;;;;;;0.70;0.70;;;6.00;1.00;;;;;;5038410;28;20187;-84
2024/01/06 03:11:00;;;;;;;0.80;0.80;;;6.00;1.00;;;;;;5038910;28;20187;-84
2024/01/06 03:13:26;;;;;;;0.70;0.70;;;6.30;1.00;;;;;;5038693;28;20572;-84
2024/01/06 03:15:51;;;;;;;0.70;0.70;;;6.00;1.00;;;;;;5038422;28;20192;-84
2024/01/06 03:18:17;;;;;;;0.70;0.70;;;5.90;1.00;;;;;;5038448;28;20211;-84
2024/01/06 03:20:43;;;;;;;0.70;0.70;;;5.90;1.00;;;;;;5037620;28;20183;-84
2024/01/06 03:23:08;;;;;;;0.80;0.80;;;5.90;1.00;;;;;;5037070;28;20188;-84
2024/01/06 03:25:34;;;;;;;0.80;0.80;;;5.90;1.00;;;;;;5040156;28;20171;-87
2024/01/06 03:27:59;;;;;;;0.70;0.70;;;5.90;1.00;;;;;;5041028;28;20176;-85
2024/01/06 03:30:25;;;;;;;0.80;0.80;;;5.90;1.00;;;;;;5040389;28;20176;-85
2024/01/06 03:32:50;;;;;;;0.80;0.80;;;5.80;1.00;;;;;;5040838;28;20176;-85
2024/01/06 03:35:16;;;;;;;0.70;0.70;;;5.80;1.00;;;;;;5040527;28;20192;-85
2024/01/06 03:37:43;;;;;;;0.70;0.70;;;5.80;1.00;;;;;;5040992;28;20203;-85
2024/01/06 03:40:09;;;;;;;0.80;0.80;;;5.80;1.00;;;;;;5041643;28;20238;-85
2024/01/06 03:42:36;;;;;;;0.80;0.80;;;5.70;1.00;;;;;;5040875;28;20176;-85
2024/01/06 03:45:02;;;;;;;0.80;0.80;;;5.70;1.00;;;;;;5040789;28;20693;-86
2024/01/06 03:47:28;;;;;;;0.63;0.63;;;5.70;1.00;;;;;;5040477;28;20202;-85
2024/01/06 03:49:53;;;;;;;0.90;0.90;;;5.70;1.00;;;;;;5041030;28;20302;-86
2024/01/06 03:52:19;;;;;;;0.60;0.60;;;5.70;1.00;;;;;;5041333;28;20186;-85
2024/01/06 03:54:45;;;;;;;0.70;0.70;;;5.60;1.00;;;;;;5049034;28;20183;-85
2024/01/06 03:57:10;;;;;;;0.70;0.70;;;5.60;1.00;;;;;;5055534;28;20191;-85
2024/01/06 03:59:36;;;;;;;0.90;0.90;;;5.60;1.00;;;;;;5055796;28;20184;-85
2024/01/06 04:02:01;;;;;;;0.90;0.90;;;5.50;1.00;;;;;;5055744;28;20247;-84
2024/01/06 04:04:27;;;;;;;0.80;0.80;;;5.50;1.00;;;;;;5055223;28;20183;-84
2024/01/06 04:06:53;;;;;;;0.83;0.83;;;5.60;1.00;;;;;;5035948;28;20380;-84
2024/01/06 04:09:18;;;;;;;0.60;0.60;;;5.50;1.00;;;;;;5036161;28;20172;-84
2024/01/06 04:11:44;;;;;;;0.80;0.80;;;5.50;1.00;;;;;;5036206;28;20219;-84
2024/01/06 04:14:09;;;;;;;0.70;0.70;;;5.50;1.00;;;;;;5036330;28;20171;-85
2024/01/06 04:16:35;;;;;;;0.77;0.77;;;5.50;1.00;;;;;;5035800;28;20191;-84
2024/01/06 04:19:00;;;;;;;0.70;0.70;;;5.50;1.00;;;;;;5036519;28;20214;-85
2024/01/06 04:21:26;;;;;;;0.80;0.80;;;5.50;1.00;;;;;;5036363;28;20198;-84
2024/01/06 04:23:51;;;;;;;0.70;0.70;;;5.50;1.00;;;;;;5037445;28;20237;-84
2024/01/06 04:26:17;;;;;;;0.70;0.70;;;5.50;1.00;;;;;;5035436;28;20195;-84
2024/01/06 04:28:42;;;;;;;0.80;0.80;;;5.50;1.00;;;;;;5037212;28;20251;-84
2024/01/06 04:31:08;;;;;;;0.80;0.80;;;5.50;1.00;;;;;;5036915;28;20541;-85
2024/01/06 04:33:33;;;;;;;0.70;0.70;;;5.40;1.00;;;;;;5036639;28;20172;-84
2024/01/06 04:36:01;;;;;;;0.70;0.70;;;5.40;1.00;;;;;;5036605;28;20314;-84
2024/01/06 04:38:27;;;;;;;0.70;0.70;;;5.30;1.00;;;;;;5037131;28;20227;-84
2024/01/06 04:40:52;;;;;;;0.80;0.80;;;5.30;1.00;;;;;;5036855;28;20211;-84
2024/01/06 04:43:18;;;;;;;0.70;0.70;;;5.30;1.00;;;;;;5036536;28;20172;-84
2024/01/06 04:45:44;;;;;;;0.70;0.70;;;5.30;1.00;;;;;;5034838;28;20179;-84
2024/01/06 04:48:09;;;;;;;0.73;0.73;;;5.80;1.00;;;;;;5036146;28;20215;-84
2024/01/06 04:50:35;;;;;;;0.80;0.80;;;5.30;1.00;;;;;;5035658;28;20175;-83
2024/01/06 04:53:00;;;;;;;0.73;0.73;;;5.30;1.00;;;;;;5034999;28;20184;-84
2024/01/06 04:55:26;;;;;;;0.80;0.80;;;5.20;1.00;;;;;;5040960;28;20168;-84
2024/01/06 04:57:51;;;;;;;0.70;0.70;;;5.20;1.00;;;;;;5053223;28;20218;-85
2024/01/06 05:00:17;;;;;;;0.70;0.70;;;5.20;1.00;;;;;;5053583;28;20183;-85
2024/01/06 05:02:43;;;;;;;0.80;0.80;;;5.20;1.00;;;;;;5052510;28;20190;-84
2024/01/06 05:05:09;;;;;;;0.77;0.77;;;5.20;1.00;;;;;;5051798;28;20203;-84
2024/01/06 05:07:35;;;;;;;0.80;0.80;;;5.20;1.00;;;;;;5052124;28;20211;-84
2024/01/06 05:10:00;;;;;;;0.90;0.90;;;5.10;1.00;;;;;;5051067;28;20216;-84
2024/01/06 05:12:26;;;;;;;0.70;0.70;;;5.10;1.00;;;;;;5052022;28;20270;-85
2024/01/06 05:14:51;;;;;;;0.80;0.80;;;5.20;1.00;;;;;;5046496;28;20176;-85
2024/01/06 05:17:17;;;;;;;0.77;0.77;;;5.10;1.00;;;;;;5038802;28;20207;-85
2024/01/06 05:19:42;;;;;;;0.73;0.73;;;5.10;1.00;;;;;;5057808;28;20184;-85
2024/01/06 05:22:08;;;;;;;0.73;0.73;;;5.10;1.00;;;;;;5041939;28;20198;-85
2024/01/06 05:24:33;;;;;;;0.80;0.80;;;5.20;1.00;;;;;;5039489;28;20733;-84
2024/01/06 05:26:59;;;;;;;0.70;0.70;;;5.10;1.00;;;;;;5038318;28;20199;-85
2024/01/06 05:29:25;;;;;;;0.80;0.80;;;5.10;1.00;;;;;;5039128;28;20673;-86
2024/01/06 05:31:51;;;;;;;0.90;0.90;;;5.10;1.00;;;;;;5039179;28;20234;-85
2024/01/06 05:34:17;;;;;;;0.80;0.80;;;5.10;1.00;;;;;;5040489;28;20181;-85
2024/01/06 05:36:42;;;;;;;0.70;0.70;;;5.00;1.00;;;;;;5038851;28;20286;-85
2024/01/06 05:39:08;;;;;;;0.80;0.80;;;5.00;1.00;;;;;;5037947;28;20180;-85
2024/01/06 05:41:42;;;;;;;0.70;0.70;;;5.00;1.00;;;;;;5038939;28;20668;-86
2024/01/06 05:44:08;;;;;;;0.70;0.70;;;5.00;1.00;;;;;;5038191;28;20167;-86
2024/01/06 05:46:34;;;;;;;0.80;0.80;;;5.30;1.00;;;;;;5037812;28;20255;-84
2024/01/06 05:49:00;;;;;;;0.90;0.90;;;5.00;1.00;;;;;;5038442;28;20179;-85
2024/01/06 05:51:25;;;;;;;0.80;0.80;;;5.00;1.00;;;;;;5038764;28;20164;-85
2024/01/06 05:53:51;;;;;;;0.80;0.80;;;5.60;1.00;;;;;;5038567;28;20182;-85
2024/01/06 05:56:26;;;;;;;0.80;0.80;;;5.00;1.00;;;;;;5038649;28;20192;-85
2024/01/06 05:58:55;;;;;;;0.70;0.70;;;5.10;1.00;;;;;;5038728;28;20206;-85
2024/01/06 06:01:21;;;;;;;0.73;0.73;;;5.10;1.00;;;;;;5038987;28;20172;-85
2024/01/06 06:03:47;;;;;;;0.70;0.70;;;5.20;1.00;;;;;;5054271;28;20188;-86
2024/01/06 06:06:13;;;;;;;0.80;0.80;;;5.20;1.00;;;;;;5056014;28;20219;-86
2024/01/06 06:08:42;;;;;;;0.70;0.70;;;5.20;1.00;;;;;;5050829;28;20529;-84
2024/01/06 06:11:10;;;;;;;0.70;0.70;;;5.20;1.00;;;;;;5031435;28;20176;-83
2024/01/06 06:13:40;;;;;;;0.80;0.80;;;5.20;1.00;;;;;;5033121;28;20176;-84
2024/01/06 06:16:10;;;;;;;0.70;0.70;;;5.70;1.00;;;;;;5032210;28;20287;-85
2024/01/06 06:18:35;;;;;;;0.80;0.80;;;5.20;1.00;;;;;;5032387;28;20220;-84
2024/01/06 06:21:03;;;;;;;0.70;0.70;;;5.20;1.00;;;;;;5032330;28;20233;-84
2024/01/06 06:23:30;;;;;;;0.80;0.80;;;5.30;1.00;;;;;;5030884;28;20583;-84
2024/01/06 06:25:55;;;;;;;0.70;0.70;;;5.30;1.00;;;;;;5031729;28;20188;-84
2024/01/06 06:28:21;;;;;;;0.70;0.70;;;5.30;1.00;;;;;;5035694;28;20676;-84
2024/01/06 06:30:47;;;;;;;0.73;0.73;;;5.40;1.00;;;;;;5036500;28;20615;-84
2024/01/06 06:33:12;;;;;;;0.70;0.70;;;5.40;1.00;;;;;;5036106;28;20179;-85
2024/01/06 06:35:38;;;;;;;0.70;0.70;;;5.40;1.00;;;;;;5035045;28;20187;-84
2024/01/06 06:38:03;;;;;;;0.70;0.70;;;5.40;1.00;;;;;;5049194;28;20218;-90
2024/01/06 06:40:29;;;;;;;0.70;0.70;;;5.40;1.00;;;;;;5061023;28;20171;-88
2024/01/06 06:42:55;;;;;;;0.80;0.80;;;5.40;1.00;;;;;;5061183;28;20183;-88
2024/01/06 06:45:22;;;;;;;0.70;0.70;;;5.40;1.00;;;;;;5061326;28;20160;-86
2024/01/06 06:47:49;;;;;;;0.70;0.70;;;5.40;1.00;;;;;;5053126;28;20200;-81
2024/01/06 06:50:16;;;;;;;0.77;0.77;;;5.30;1.00;;;;;;5042469;28;20191;-83
2024/01/06 06:52:42;;;;;;;0.70;0.70;;;5.20;1.00;;;;;;5040931;28;20188;-82
2024/01/06 06:55:08;;;;;;;0.80;0.80;;;5.20;1.00;;;;;;5039342;28;20255;-83
2024/01/06 06:57:33;;;;;;;0.73;0.73;;;5.30;1.00;;;;;;5039979;28;20774;-87
2024/01/06 07:00:00;;;;;;;0.80;0.80;;;5.30;1.00;;;;;;5039617;28;20180;-83
2024/01/06 07:02:26;;;;;;;0.70;0.70;;;5.30;1.00;;;;;;5038839;28;20183;-82
2024/01/06 07:04:51;;;;;;;0.60;0.60;;;5.30;1.00;;;;;;5038282;28;20179;-82
2024/01/06 07:07:17;;;;;;;0.80;0.80;;;5.40;1.00;;;;;;5037879;28;20681;-82
2024/01/06 07:09:42;;;;;;;0.77;0.77;;;5.40;1.00;;;;;;5039000;28;20280;-82
2024/01/06 07:12:08;;;;;;;0.70;0.70;;;5.40;1.00;;;;;;5038632;28;20864;-82
2024/01/06 07:14:34;;;;;;;0.80;0.80;;;5.40;1.00;;;;;;5038700;28;20168;-82
2024/01/06 07:16:59;;;;;;;0.77;0.77;;;5.50;1.00;;;;;;5037529;28;20211;-83
2024/01/06 07:19:25;;;;;;;0.77;0.77;;;5.50;1.00;;;;;;5038325;28;20243;-82
2024/01/06 07:21:50;;;;;;;0.80;0.80;;;5.40;1.00;;;;;;5038320;28;20184;-83
2024/01/06 07:24:16;;;;;;;0.70;0.70;;;5.40;1.00;;;;;;5037996;28;20168;-83
2024/01/06 07:26:41;;;;;;;0.80;0.80;;;5.30;1.00;;;;;;5036943;28;20681;-83
2024/01/06 07:29:08;;;;;;;0.70;0.70;;;5.30;1.00;;;;;;5036263;28;20179;-82
2024/01/06 07:31:33;;;;;;;0.80;0.80;;;5.30;1.00;;;;;;5037591;28;20187;-82
2024/01/06 07:33:59;;;;;;;0.80;0.80;;;5.30;1.00;;;;;;5037832;28;20178;-83
2024/01/06 07:36:25;;;;;;;0.70;0.70;;;5.30;1.00;;;;;;5037949;28;20639;-82
2024/01/06 07:38:51;;;;;;;0.80;0.80;;;5.40;1.00;;;;;;5037742;28;20203;-84
2024/01/06 07:41:17;;;;;;;0.70;0.70;;;5.40;1.00;;;;;;5038664;28;20176;-85
2024/01/06 07:43:43;;;;;;;0.70;0.70;;;5.40;1.00;;;;;;5037899;28;20307;-83
2024/01/06 07:46:09;;;;;;;0.80;0.80;;;5.40;1.00;;;;;;5033483;28;20669;-84
2024/01/06 07:48:35;;;;;;;0.90;0.90;;;5.50;1.00;;;;;;5031620;28;20184;-84
2024/01/06 07:51:03;;;;;;;0.80;0.80;;;5.50;1.00;;;;;;5025772;28;20195;-83
2024/01/06 07:53:30;;;;;;;0.77;0.77;;;5.60;1.00;;;;;;5018643;28;20179;-84
2024/01/06 07:55:56;;;;;;;0.73;0.73;;;5.50;1.00;;;;;;5028621;28;20191;-83
2024/01/06 07:58:21;;;;;;;0.90;0.90;;;5.50;1.00;;;;;;5020795;28;20216;-85
2024/01/06 08:00:47;;;;;;;0.70;0.70;;;5.60;1.00;;;;;;5028787;28;20192;-84
2024/01/06 08:03:13;;;;;;;0.77;0.77;;;5.60;1.00;;;;;;5024753;28;20279;-86
2024/01/06 08:05:39;;;;;;;0.70;0.70;;;5.60;1.00;;;;;;5026226;28;20267;-84
2024/01/06 08:08:05;;;;;;;0.80;0.80;;;5.60;1.00;;;;;;5031325;28;20712;-85
2024/01/06 08:10:31;;;;;;;0.70;0.70;;;5.60;1.00;;;;;;5028357;28;20184;-85
2024/01/06 08:12:58;;;;;;;0.80;0.80;;;5.60;1.00;;;;;;5034852;28;20180;-86
2024/01/06 08:15:24;;;;;;;0.70;0.70;;;5.70;1.00;;;;;;5031853;28;20171;-86
2024/01/06 08:17:50;;;;;;;0.70;0.70;;;5.70;1.00;;;;;;5035712;28;20230;-85
2024/01/06 08:20:15;;;;;;;0.70;0.70;;;5.80;1.00;;;;;;5047301;28;20210;-86
2024/01/06 08:22:42;;;;;;;0.70;0.70;;;5.80;1.00;;;;;;5048591;28;20236;-86
2024/01/06 08:25:07;;;;;;;0.80;0.80;;;5.80;1.00;;;;;;5050108;28;20225;-85
2024/01/06 08:27:34;;;;;;;0.80;0.80;;;5.90;1.00;;;;;;5050744;28;20435;-86
2024/01/06 08:30:00;;;;;;;0.70;0.70;;;5.90;1.00;;;;;;5042628;28;20203;-87
2024/01/06 08:32:25;;;;;;;0.70;0.70;;;6.00;1.00;;;;;;5035426;28;20176;-88
2024/01/06 08:34:51;;;;;;;0.73;0.73;;;6.00;1.00;;;;;;5022479;28;20189;-88
2024/01/06 08:37:17;;;;;;;0.80;0.80;;;6.10;1.00;;;;;;5027484;28;20212;-90
2024/01/06 08:39:46;;;;;;;0.73;0.73;;;6.10;1.00;;;;;;5022774;28;20647;-91
2024/01/06 08:42:13;;;;;;;0.70;0.70;;;6.10;1.00;;;;;;5026128;28;20172;-90
2024/01/06 08:44:39;;;;;;;0.80;0.80;;;6.20;1.00;;;;;;5031085;28;20164;-89
2024/01/06 08:47:05;;;;;;;0.80;0.80;;;6.20;1.00;;;;;;5031400;28;20334;-90
2024/01/06 08:49:30;;;;;;;0.70;0.70;;;6.20;1.00;;;;;;5023291;28;20176;-89
2024/01/06 08:51:56;;;;;;;0.70;0.70;;;6.20;1.00;;;;;;5017725;28;20638;-88
2024/01/06 08:54:21;;;;;;;0.80;0.80;;;6.20;1.00;;;;;;5015129;28;20169;-89
2024/01/06 08:56:47;;;;;;;0.80;0.80;;;6.20;1.00;;;;;;5015073;28;20197;-89
2024/01/06 08:59:12;;;;;;;0.70;0.70;;;6.30;1.00;;;;;;5014333;28;20188;-89
2024/01/06 09:01:39;;;;;;;0.70;0.70;;;6.30;1.00;;;;;;5015487;28;20591;-89
2024/01/06 09:04:06;;;;;;;0.70;0.70;;;6.40;1.00;;;;;;5015454;28;20845;-84
2024/01/06 09:06:32;;;;;;;0.80;0.80;;;6.40;1.00;;;;;;5021354;28;20211;-84
2024/01/06 09:08:57;;;;;;;0.70;0.70;;;6.50;1.00;;;;;;5031626;28;20184;-84
2024/01/06 09:11:24;;;;;;;0.80;0.80;;;6.60;1.00;;;;;;5046653;28;20247;-83
2024/01/06 09:13:52;;;;;;;0.70;0.70;;;6.70;1.00;;;;;;5045062;28;20175;-84
2024/01/06 09:16:18;;;;;;;0.80;0.80;;;6.70;1.00;;;;;;5042111;28;20202;-85
2024/01/06 09:18:44;;;;;;;0.80;0.80;;;6.80;1.00;;;;;;5041581;28;20196;-85
2024/01/06 09:21:10;;;;;;;0.70;0.70;;;6.80;1.00;;;;;;5040806;28;20203;-85
2024/01/06 09:23:35;;;;;;;0.80;0.80;;;6.90;1.00;;;;;;5041502;28;20176;-85
2024/01/06 09:26:01;;;;;;;0.70;0.70;;;6.90;1.00;;;;;;5040018;28;20212;-85
2024/01/06 09:28:28;;;;;;;0.70;0.70;;;7.00;1.00;;;;;;5040013;28;20171;-84
2024/01/06 09:30:55;;;;;;;0.70;0.70;;;7.00;99.90;;;;;;5039763;28;20172;-84
2024/01/06 09:33:22;;;;;;;0.77;0.77;;;7.00;1.00;;;;;;5040009;28;20678;-87
2024/01/06 09:35:47;;;;;;;0.70;0.70;;;7.10;99.90;;;;;;5037228;28;20183;-85
2024/01/06 09:38:13;;;;;;;0.80;0.80;;;7.00;1.00;;;;;;5037170;28;20211;-84
2024/01/06 09:40:47;;;;;;;0.70;0.70;;;7.00;1.00;;;;;;5036752;28;20171;-85
2024/01/06 09:43:13;;;;;;;0.80;0.80;;;7.10;1.00;;;;;;5033543;28;20195;-84
2024/01/06 09:45:42;;;;;;;0.73;0.73;;;7.10;1.00;;;;;;5033665;28;20657;-83
2024/01/06 09:48:15;;;;;;;0.60;0.60;;;7.10;90.70;;;;;;5035140;28;20638;-83
2024/01/06 09:50:42;;;;;;;0.73;0.73;;;7.00;1.00;;;;;;5036323;28;20199;-83
2024/01/06 09:53:11;;;;;;;0.80;0.80;;;7.00;1.00;;;;;;5036215;28;20168;-85
2024/01/06 09:55:43;;;;;;;0.80;0.80;;;7.00;99.90;;;;;;5045141;28;20168;-83
2024/01/06 09:58:10;;;;;;;0.80;0.80;;;7.00;1.00;;;;;;5056061;28;20207;-84
2024/01/06 10:00:37;;;;;;;0.80;0.80;;;7.00;1.00;;;;;;5035864;28;20201;-83
2024/01/06 10:03:03;;;;;;;0.70;0.70;;;7.00;99.90;;;;;;5036729;28;20376;-85
2024/01/06 10:05:28;;;;;;;0.80;0.80;;;7.10;99.90;;;;;;5036724;28;20179;-83
2024/01/06 10:07:54;;;;;;;0.80;0.80;;;7.20;1.00;;;;;;5039222;28;20226;-85
2024/01/06 10:10:22;;;;;;;0.70;0.70;;;7.30;1.00;;;;;;5038763;28;20187;-83
2024/01/06 10:12:48;;;;;;;0.70;0.70;;;7.40;1.00;;;;;;5038756;28;20175;-86
2024/01/06 10:15:13;;;;;;;0.80;0.80;;;7.60;99.90;;;;;;5038190;28;20168;-82
2024/01/06 10:17:42;;;;;;;0.77;0.77;;;7.70;1.00;;;;;;5038265;28;20226;-85
2024/01/06 10:20:12;;;;;;;0.73;0.73;;;7.80;99.90;;;;;;5039521;28;20183;-86
2024/01/06 10:22:40;;;;;;;0.70;0.70;;;8.00;99.90;;;;;;5039646;28;20197;-85
2024/01/06 10:25:08;;;;;;;0.67;0.67;;;8.20;99.90;;;;;;5038366;28;20171;-85
2024/01/06 10:27:38;;;;;;;0.60;0.60;;;8.40;1.00;;;;;;5037702;28;20195;-84
2024/01/06 10:30:04;;;;;;;0.70;0.70;;;8.60;1.00;;;;;;5036088;28;20179;-85
2024/01/06 10:32:34;;;;;;;0.67;0.67;;;8.80;1.00;;;;;;5038063;28;20186;-85
2024/01/06 10:35:05;;;;;;;0.60;0.60;;;9.00;1.00;;;;;;5041707;28;20195;-84
2024/01/06 10:37:31;;;;;;;0.60;0.60;;;9.20;1.00;;;;;;5053071;28;20271;-83
2024/01/06 10:40:16;;;;;;;0.50;0.50;;;9.20;1.00;;;;;;5053927;28;20218;-85
2024/01/06 10:42:43;;;;;;;0.60;0.60;;;9.20;1.00;;;;;;5050301;28;20174;-87
2024/01/06 10:45:10;;;;;;;0.60;0.60;;;9.00;1.00;;;;;;5037058;28;20222;-86
2024/01/06 10:47:37;;;;;;;0.70;0.70;;;8.80;99.90;;;;;;5036559;28;20233;-87
2024/01/06 10:50:03;;;;;;;0.70;0.70;;;8.70;99.90;;;;;;5037916;28;20200;-85
2024/01/06 10:52:29;;;;;;;0.70;0.70;;;8.50;1.00;;;;;;5037804;28;20250;-84
2024/01/06 10:54:55;;;;;;;0.70;0.70;;;8.30;1.00;;;;;;5031696;28;20180;-83
2024/01/06 10:57:23;;;;;;;0.60;0.60;;;8.30;1.00;;;;;;5030887;28;20200;-87
2024/01/06 10:59:51;;;;;;;0.70;0.70;;;8.30;1.00;;;;;;5025105;28;20186;-86
2024/01/06 11:02:17;;;;;;;0.70;0.70;;;8.40;1.00;;;;;;5040087;28;20198;-88
2024/01/06 11:04:48;;;;;;;0.60;0.60;;;8.40;1.00;;;;;;5038175;28;20254;-87
2024/01/06 11:07:23;;;;;;;0.77;0.77;;;8.30;1.00;;;;;;5050144;28;20263;-88
2024/01/06 11:10:15;;;;;;;0.77;0.77;;;8.20;1.00;;;;;;5045588;28;20190;-87
2024/01/06 11:12:42;;;;;;;0.90;0.90;;;8.10;99.90;;;;;;5052348;28;20243;-87
2024/01/06 11:15:08;;;;;;;0.77;0.77;;;8.10;99.90;;;;;;5055577;28;20195;-89
2024/01/06 11:18:03;;;;;;;0.70;0.70;;;8.00;1.00;;;;;;5050372;28;20208;-87
2024/01/06 11:20:28;;;;;;;0.70;0.70;;;7.90;98.10;;;;;;5027888;28;20239;-87
2024/01/06 11:22:54;;;;;;;0.57;0.57;;;8.00;1.00;;;;;;5025789;28;20192;-87
2024/01/06 11:25:21;;;;;;;0.70;0.70;;;7.90;1.00;;;;;;5043573;28;20176;-87
2024/01/06 11:27:49;;;;;;;0.80;0.80;;;7.90;1.00;;;;;;5048729;28;20212;-86
2024/01/06 11:30:26;;;;;;;0.77;0.77;;;7.90;1.00;;;;;;5057743;28;20179;-88
2024/01/06 11:32:53;;;;;;;0.73;0.73;;;7.80;1.00;;;;;;5059194;28;20210;-92
2024/01/06 11:35:21;;;;;;;0.80;0.80;;;7.70;99.90;;;;;;5058317;28;20194;-89
2024/01/06 11:37:49;;;;;;;0.70;0.70;;;7.60;1.00;;;;;;5059456;28;20231;-87
2024/01/06 11:40:20;;;;;;;0.90;0.90;;;7.40;1.00;;;;;;5054479;28;20187;-88
2024/01/06 11:42:48;;;;;;;0.80;0.80;;;7.30;99.90;;;;;;5036927;28;20184;-87
2024/01/06 11:45:15;;;;;;;0.70;0.70;;;7.20;1.00;;;;;;5037121;28;20175;-88
2024/01/06 11:47:47;;;;;;;0.60;0.60;;;7.20;99.90;;;;;;5038457;28;20200;-86
2024/01/06 11:50:12;;;;;;;0.70;0.70;;;7.20;99.90;;;;;;5038187;28;20271;-86
2024/01/06 11:52:38;;;;;;;0.70;0.70;;;7.20;99.90;;;;;;5038733;28;20222;-87
2024/01/06 11:55:06;;;;;;;0.80;0.80;;;7.30;99.90;;;;;;5036777;28;20184;-87
2024/01/06 11:57:33;;;;;;;0.70;0.70;;;7.40;99.90;;;;;;5036494;28;20659;-86
2024/01/06 11:59:58;;;;;;;0.73;0.73;;;7.40;99.90;;;;;;5037809;28;20183;-88
2024/01/06 12:02:24;;;;;;;0.83;0.83;;;7.40;1.00;;;;;;5036688;28;20180;-87
2024/01/06 12:04:51;;;;;;;0.80;0.80;;;7.40;1.00;;;;;;5031570;28;20211;-87
2024/01/06 12:07:17;;;;;;;0.70;0.70;;;7.50;1.00;;;;;;5036461;28;20203;-87
2024/01/06 12:09:43;;;;;;;0.60;0.60;;;7.50;99.90;;;;;;5038231;28;20259;-87
2024/01/06 12:12:14;;;;;;;0.60;0.60;;;7.50;99.90;;;;;;5037058;28;20203;-86
2024/01/06 12:14:42;;;;;;;0.77;0.77;;;7.60;99.90;;;;;;5039469;28;20180;-85
2024/01/06 12:17:07;;;;;;;0.80;0.80;;;7.50;1.00;;;;;;5036795;28;20211;-87
2024/01/06 12:19:33;;;;;;;0.70;0.70;;;7.60;99.90;;;;;;5038551;28;20309;-87
2024/01/06 12:21:59;;;;;;;0.77;0.77;;;7.60;1.00;;;;;;5039297;28;20535;-87
2024/01/06 12:24:27;;;;;;;0.80;0.80;;;7.60;99.90;;;;;;5054538;28;20172;-87
2024/01/06 12:29:31;;;;;;;0.70;0.70;;;7.80;1.00;;;;;;5056307;22;20243;-89
2024/01/06 12:31:59;;;;;;;0.70;0.70;;;7.90;1.00;;;;;;5050983;28;20180;-88
2024/01/06 12:34:26;;;;;;;0.67;0.67;;;7.90;1.00;;;;;;5044288;28;20210;-89
2024/01/06 12:36:55;;;;;;;0.70;0.70;;;7.80;99.90;;;;;;5044487;28;20311;-92
2024/01/06 12:39:21;;;;;;;0.70;0.70;;;7.60;1.00;;;;;;5008417;28;20177;-88
2024/01/06 12:41:46;;;;;;;0.70;0.70;;;7.50;99.90;;;;;;5030583;28;20688;-89
2024/01/06 12:44:12;;;;;;;0.80;0.80;;;7.50;1.00;;;;;;5023475;28;20700;-89
2024/01/06 12:46:38;;;;;;;0.80;0.80;;;7.60;1.00;;;;;;5024382;28;20201;-88
2024/01/06 12:49:03;;;;;;;0.70;0.70;;;7.30;1.00;;;;;;4998371;28;20260;-87
2024/01/06 12:51:29;;;;;;;0.70;0.70;;;7.20;1.00;;;;;;5006424;28;20180;-90
2024/01/06 12:53:55;;;;;;;0.80;0.80;;;7.20;1.00;;;;;;5014711;28;20180;-87
2024/01/06 12:56:22;;;;;;;0.70;0.70;;;7.20;1.00;;;;;;5016088;28;20204;-89
2024/01/06 12:58:48;;;;;;;0.70;0.70;;;7.20;1.00;;;;;;5016306;28;20227;-88
2024/01/06 13:01:14;;;;;;;0.80;0.80;;;7.20;1.00;;;;;;4993411;28;20555;-88
2024/01/06 13:03:39;;;;;;;0.70;0.70;;;7.20;1.00;;;;;;5011333;28;20185;-90
2024/01/06 13:06:05;;;;;;;0.70;0.70;;;7.10;1.00;;;;;;5013816;28;20678;-88